page 4731 of 1004564 registered users

eBook PostsUsers

  1. 0soccerowl1 registered @ 2012-12-02 10:08:02, last login @ 2012-12-02 10:08:02
  2. 0linenwash9 registered @ 2012-12-02 10:09:13, last login @ 2012-12-02 10:09:13
  3. 0hawkfile85 registered @ 2012-12-02 10:09:35, last login @ 2012-12-02 10:09:35
  4. 0ariesgiant94 registered @ 2012-12-02 10:11:43, last login @ 2012-12-02 10:11:43
  5. 0idellrheqbs16l registered @ 2012-12-02 10:12:29, last login @ 2012-12-02 10:12:29
  6. 0pencilfloor39 registered @ 2012-12-02 10:12:36, last login @ 2012-12-02 10:12:36
  7. 0wellsrkhzxofg6 registered @ 2012-12-02 10:12:53, last login @ 2012-12-02 10:12:53
  8. 0holehand39 registered @ 2012-12-02 10:15:20, last login @ 2012-12-02 10:15:20
  9. 0canvasblow75 registered @ 2012-12-02 10:17:15, last login @ 2012-12-02 10:17:15
  10. 0mimosamouse3 registered @ 2012-12-02 10:17:27, last login @ 2012-12-02 10:17:27
  11. 0star07chard registered @ 2012-12-02 10:19:32, last login @ 2012-12-02 10:19:32
  12. 0lunge5plow registered @ 2012-12-02 10:20:37, last login @ 2012-12-02 10:20:37
  13. 0table3sex registered @ 2012-12-02 10:21:03, last login @ 2012-12-02 10:21:03
  14. 0study39pigeon registered @ 2012-12-02 10:23:11, last login @ 2012-12-02 10:23:11
  15. 0fruit95pastry registered @ 2012-12-02 10:24:08, last login @ 2012-12-02 10:24:08
  16. 0buttongarage4 registered @ 2012-12-02 10:24:39, last login @ 2012-12-02 10:24:39
  17. 0toilet4goose registered @ 2012-12-02 10:25:06, last login @ 2012-12-02 10:25:06
  18. 0beer5night registered @ 2012-12-02 10:25:16, last login @ 2012-12-02 10:25:16
  19. 0ground16poison registered @ 2012-12-02 10:25:46, last login @ 2012-12-02 10:25:46
  20. 0debtorhyena8 registered @ 2012-12-02 10:27:22, last login @ 2012-12-02 10:27:22
  21. 0plain30regret registered @ 2012-12-02 10:28:26, last login @ 2012-12-02 10:28:26
  22. 0gilbertus registered @ 2012-12-02 10:28:54, last login @ 2012-12-02 10:30:56
  23. 0adultpie26 registered @ 2012-12-02 10:33:27, last login @ 2012-12-02 10:33:27
  24. 0zebraslope3 registered @ 2012-12-02 10:34:13, last login @ 2012-12-02 10:34:13
  25. 0loan2cod registered @ 2012-12-02 10:34:25, last login @ 2012-12-02 10:34:25
  26. 0break9spear registered @ 2012-12-02 10:35:16, last login @ 2012-12-02 10:35:16
  27. 0appealcopper79 registered @ 2012-12-02 10:35:16, last login @ 2012-12-02 10:35:16
  28. 0feastclef8 registered @ 2012-12-02 10:35:46, last login @ 2012-12-02 10:35:46
  29. 0hockeycafe16 registered @ 2012-12-02 10:38:15, last login @ 2012-12-02 10:38:15
  30. 0camelalto41 registered @ 2012-12-02 10:38:16, last login @ 2012-12-02 10:38:16
  31. 0mapslave7 registered @ 2012-12-02 10:39:33, last login @ 2012-12-02 10:39:33
  32. 0dew8piano registered @ 2012-12-02 10:41:26, last login @ 2012-12-02 10:41:26
  33. 0cyclecub01 registered @ 2012-12-02 10:42:40, last login @ 2012-12-02 10:42:40
  34. 0spikeanswer0 registered @ 2012-12-02 10:43:41, last login @ 2012-12-02 10:43:41
  35. 0napkin57note registered @ 2012-12-02 10:45:03, last login @ 2012-12-02 10:45:03
  36. 0earwaiter50 registered @ 2012-12-02 10:45:10, last login @ 2012-12-02 10:45:10
  37. 0drinkknight0 registered @ 2012-12-02 10:45:50, last login @ 2012-12-02 10:45:50
  38. 0column5john registered @ 2012-12-02 10:46:16, last login @ 2012-12-02 10:46:16
  39. 0star76buffer registered @ 2012-12-02 10:48:36, last login @ 2012-12-02 10:48:36
  40. 0amount1touch registered @ 2012-12-02 10:48:48, last login @ 2012-12-02 10:48:48
  41. 0john00baker registered @ 2012-12-02 10:49:04, last login @ 2012-12-02 10:49:04
  42. 0yakbubble2 registered @ 2012-12-02 10:49:06, last login @ 2012-12-02 10:49:06
  43. 0stage2brace registered @ 2012-12-02 10:49:32, last login @ 2012-12-02 10:49:32
  44. 0cow96taiwan registered @ 2012-12-02 10:50:01, last login @ 2012-12-02 10:50:01
  45. 0primprim01 registered @ 2012-12-02 10:50:13, last login @ 2012-12-02 10:50:13
  46. 0stempuma4 registered @ 2012-12-02 10:52:02, last login @ 2012-12-02 10:52:02
  47. 0vein3baker registered @ 2012-12-02 10:54:30, last login @ 2012-12-02 10:54:30
  48. 0quitjumper8 registered @ 2012-12-02 10:54:46, last login @ 2012-12-02 10:54:46
  49. 0watch06chain registered @ 2012-12-02 10:55:06, last login @ 2012-12-02 10:55:06
  50. 0enginecold54 registered @ 2012-12-02 10:55:21, last login @ 2012-12-02 10:55:21
  51. 0DanielHZamora registered @ 2012-12-02 10:56:47, last login @ 2012-12-02 10:56:47
  52. 0work13flame registered @ 2012-12-02 10:58:35, last login @ 2012-12-02 10:58:35
  53. 0soda1button registered @ 2012-12-02 11:00:29, last login @ 2012-12-02 11:00:29
  54. 0ferrydahlia36 registered @ 2012-12-02 11:00:40, last login @ 2012-12-02 11:00:40
  55. 0temple98deal registered @ 2012-12-02 11:00:54, last login @ 2012-12-02 11:00:54
  56. 0syrup78chard registered @ 2012-12-02 11:01:07, last login @ 2012-12-02 11:01:07
  57. 0bearspoon64 registered @ 2012-12-02 11:02:08, last login @ 2012-12-02 11:02:08
  58. 0wedge5floor registered @ 2012-12-02 11:03:40, last login @ 2012-12-02 11:03:40
  59. 0single0quilt registered @ 2012-12-02 11:04:36, last login @ 2012-12-02 11:04:36
  60. 0brush19yacht registered @ 2012-12-02 11:05:03, last login @ 2012-12-02 11:53:37
  61. 0boot5link registered @ 2012-12-02 11:06:07, last login @ 2012-12-02 11:06:07
  62. 0lambbasket4 registered @ 2012-12-02 11:06:31, last login @ 2012-12-02 11:06:31
  63. 0leo94cold registered @ 2012-12-02 11:07:07, last login @ 2012-12-02 11:07:07
  64. 0restturn93 registered @ 2012-12-02 11:07:19, last login @ 2012-12-02 11:07:19
  65. 0kidney57wrist registered @ 2012-12-02 11:09:19, last login @ 2012-12-02 11:09:19
  66. 0cd8goat registered @ 2012-12-02 11:09:44, last login @ 2012-12-02 11:09:44
  67. 0versepond0 registered @ 2012-12-02 11:11:29, last login @ 2012-12-02 11:11:29
  68. 0truck43appeal registered @ 2012-12-02 11:12:04, last login @ 2012-12-02 11:12:04
  69. 0pointcereal49 registered @ 2012-12-02 11:12:42, last login @ 2012-12-02 11:12:42
  70. 0order6idea registered @ 2012-12-02 11:13:57, last login @ 2012-12-02 11:13:57
  71. 0europesalary0 registered @ 2012-12-02 11:13:57, last login @ 2012-12-02 11:13:57
  72. 0carot registered @ 2012-12-02 11:14:13, last login @ 2012-12-02 11:14:13
  73. 0lungedraw7 registered @ 2012-12-02 11:15:18, last login @ 2012-12-02 11:15:18
  74. 0pansysofa67 registered @ 2012-12-02 11:15:49, last login @ 2012-12-02 11:15:49
  75. 0Rakshu registered @ 2012-12-02 11:15:51, last login @ 2012-12-02 11:15:51
  76. 0mass51diving registered @ 2012-12-02 11:16:08, last login @ 2012-12-02 11:16:08
  77. 0drawer63meal registered @ 2012-12-02 11:16:29, last login @ 2012-12-02 11:16:29
  78. 0tyvekenemy1 registered @ 2012-12-02 11:17:09, last login @ 2012-12-02 11:17:09
  79. 0qinyun68 registered @ 2012-12-02 11:17:52, last login @ 2012-12-02 11:18:20
  80. 0raysphere7 registered @ 2012-12-02 11:18:53, last login @ 2012-12-02 11:18:53
  81. 0pieletter33 registered @ 2012-12-02 11:19:40, last login @ 2012-12-02 11:19:40
  82. 0whale46crow registered @ 2012-12-02 11:22:15, last login @ 2012-12-02 11:52:30
  83. 0point53dash registered @ 2012-12-02 11:22:25, last login @ 2012-12-02 11:22:25
  84. 0humor91copper registered @ 2012-12-02 11:22:35, last login @ 2012-12-02 11:22:35
  85. 0uganda2dry registered @ 2012-12-02 11:22:42, last login @ 2012-12-02 11:22:42
  86. 0group48betty registered @ 2012-12-02 11:23:47, last login @ 2012-12-02 11:23:47
  87. 0troutcar98 registered @ 2012-12-02 11:24:32, last login @ 2012-12-02 11:24:32
  88. 0crocus28slash registered @ 2012-12-02 11:26:17, last login @ 2012-12-02 11:26:17
  89. 0bagelhome0 registered @ 2012-12-02 11:26:44, last login @ 2012-12-02 11:26:44
  90. 0carbonbill7 registered @ 2012-12-02 11:27:48, last login @ 2012-12-02 11:27:48
  91. 0list7pin registered @ 2012-12-02 11:29:22, last login @ 2012-12-02 11:29:22
  92. 0tiger48boot registered @ 2012-12-02 11:29:25, last login @ 2012-12-02 11:29:25
  93. 0poettuba6 registered @ 2012-12-02 11:29:43, last login @ 2012-12-02 11:29:43
  94. 0radartyvek5 registered @ 2012-12-02 11:31:32, last login @ 2012-12-02 11:31:32
  95. 0beard71trail registered @ 2012-12-02 11:32:05, last login @ 2012-12-02 11:32:05
  96. 0grapemarble52 registered @ 2012-12-02 11:32:34, last login @ 2012-12-02 11:32:34
  97. 0lamb6bow registered @ 2012-12-02 11:32:39, last login @ 2012-12-02 11:32:39
  98. 0enemy1open registered @ 2012-12-02 11:32:55, last login @ 2012-12-02 11:32:55
  99. 0railwriter7 registered @ 2012-12-02 11:34:47, last login @ 2012-12-02 11:34:47
  100. 0jewelanger57 registered @ 2012-12-02 11:34:57, last login @ 2012-12-02 11:34:57
  101. 0fish2turkey registered @ 2012-12-02 11:34:59, last login @ 2012-12-02 11:34:59

More...

[4741] [4740] [4739] [4738] [4737] [4736] [4735] [4734] [4733] [4732] [4731] [4730] [4729] [4728] [4727] [4726] [4725] [4724] [4723] [4722] ...[1]
Back to Top